sensor_id;sensor_type;location;lat;lon;timestamp;P1;durP1;ratioP1;P2;durP2;ratioP2
76107;SDS011;64834;52.516;10.528;2023-02-17T00:00:56;34.38;;;17.55;;
76107;SDS011;64834;52.516;10.528;2023-02-17T00:03:22;35.60;;;18.45;;
76107;SDS011;64834;52.516;10.528;2023-02-17T00:05:48;32.35;;;17.42;;
76107;SDS011;64834;52.516;10.528;2023-02-17T00:08:13;35.70;;;17.60;;
76107;SDS011;64834;52.516;10.528;2023-02-17T00:10:38;31.48;;;16.80;;
76107;SDS011;64834;52.516;10.528;2023-02-17T00:13:04;34.28;;;18.52;;
76107;SDS011;64834;52.516;10.528;2023-02-17T00:15:30;35.67;;;18.33;;
76107;SDS011;64834;52.516;10.528;2023-02-17T00:17:55;36.15;;;17.90;;
76107;SDS011;64834;52.516;10.528;2023-02-17T00:20:20;32.92;;;17.75;;
76107;SDS011;64834;52.516;10.528;2023-02-17T00:22:46;30.88;;;17.40;;
76107;SDS011;64834;52.516;10.528;2023-02-17T00:25:11;36.13;;;18.23;;
76107;SDS011;64834;52.516;10.528;2023-02-17T00:27:36;36.05;;;18.15;;
76107;SDS011;64834;52.516;10.528;2023-02-17T00:30:02;32.38;;;15.77;;
76107;SDS011;64834;52.516;10.528;2023-02-17T00:32:28;32.88;;;17.23;;
76107;SDS011;64834;52.516;10.528;2023-02-17T00:34:53;37.03;;;17.50;;
76107;SDS011;64834;52.516;10.528;2023-02-17T00:37:20;32.38;;;16.90;;
76107;SDS011;64834;52.516;10.528;2023-02-17T00:39:45;35.70;;;17.63;;
76107;SDS011;64834;52.516;10.528;2023-02-17T00:42:11;31.90;;;17.27;;
76107;SDS011;64834;52.516;10.528;2023-02-17T00:44:36;35.22;;;16.65;;
76107;SDS011;64834;52.516;10.528;2023-02-17T00:47:01;34.78;;;17.50;;
76107;SDS011;64834;52.516;10.528;2023-02-17T00:49:27;28.95;;;15.13;;
76107;SDS011;64834;52.516;10.528;2023-02-17T00:51:52;37.05;;;16.35;;
76107;SDS011;64834;52.516;10.528;2023-02-17T00:54:18;31.15;;;16.10;;
76107;SDS011;64834;52.516;10.528;2023-02-17T00:56:44;31.27;;;15.60;;
76107;SDS011;64834;52.516;10.528;2023-02-17T00:59:10;24.45;;;11.60;;
76107;SDS011;64834;52.516;10.528;2023-02-17T01:01:36;30.20;;;15.82;;
76107;SDS011;64834;52.516;10.528;2023-02-17T01:04:02;32.90;;;16.30;;
76107;SDS011;64834;52.516;10.528;2023-02-17T01:06:29;27.88;;;15.07;;
76107;SDS011;64834;52.516;10.528;2023-02-17T01:08:56;32.40;;;16.02;;
76107;SDS011;64834;52.516;10.528;2023-02-17T01:11:24;27.08;;;14.80;;
76107;SDS011;64834;52.516;10.528;2023-02-17T01:13:51;28.08;;;15.68;;
76107;SDS011;64834;52.516;10.528;2023-02-17T01:16:17;25.95;;;14.65;;
76107;SDS011;64834;52.516;10.528;2023-02-17T01:18:45;27.90;;;14.20;;
76107;SDS011;64834;52.516;10.528;2023-02-17T01:21:20;29.23;;;15.68;;
76107;SDS011;64834;52.516;10.528;2023-02-17T01:23:51;28.35;;;15.77;;
76107;SDS011;64834;52.516;10.528;2023-02-17T01:26:22;29.25;;;15.07;;
76107;SDS011;64834;52.516;10.528;2023-02-17T01:28:49;30.67;;;16.30;;
76107;SDS011;64834;52.516;10.528;2023-02-17T01:31:16;26.60;;;14.82;;
76107;SDS011;64834;52.516;10.528;2023-02-17T01:33:42;26.35;;;14.23;;
76107;SDS011;64834;52.516;10.528;2023-02-17T01:36:09;23.52;;;14.73;;
76107;SDS011;64834;52.516;10.528;2023-02-17T01:38:36;27.73;;;15.88;;
76107;SDS011;64834;52.516;10.528;2023-02-17T01:41:02;24.85;;;15.20;;
76107;SDS011;64834;52.516;10.528;2023-02-17T01:43:29;24.38;;;14.93;;
76107;SDS011;64834;52.516;10.528;2023-02-17T01:45:55;26.17;;;15.05;;
76107;SDS011;64834;52.516;10.528;2023-02-17T01:48:29;28.15;;;15.73;;
76107;SDS011;64834;52.516;10.528;2023-02-17T01:51:02;28.23;;;14.57;;
76107;SDS011;64834;52.516;10.528;2023-02-17T01:53:35;26.88;;;14.52;;
76107;SDS011;64834;52.516;10.528;2023-02-17T01:56:04;24.80;;;14.43;;
76107;SDS011;64834;52.516;10.528;2023-02-17T01:58:30;26.98;;;14.90;;
76107;SDS011;64834;52.516;10.528;2023-02-17T02:00:56;27.98;;;14.70;;
76107;SDS011;64834;52.516;10.528;2023-02-17T02:03:24;27.08;;;15.25;;
76107;SDS011;64834;52.516;10.528;2023-02-17T02:05:53;22.48;;;13.55;;
76107;SDS011;64834;52.516;10.528;2023-02-17T02:08:19;23.30;;;14.00;;
76107;SDS011;64834;52.516;10.528;2023-02-17T02:10:44;28.70;;;15.73;;
76107;SDS011;64834;52.516;10.528;2023-02-17T02:13:09;24.17;;;14.35;;
76107;SDS011;64834;52.516;10.528;2023-02-17T02:15:46;20.60;;;12.32;;
76107;SDS011;64834;52.516;10.528;2023-02-17T02:18:27;23.88;;;13.88;;
76107;SDS011;64834;52.516;10.528;2023-02-17T02:21:08;23.73;;;13.43;;
76107;SDS011;64834;52.516;10.528;2023-02-17T02:23:48;22.13;;;14.18;;
76107;SDS011;64834;52.516;10.528;2023-02-17T02:35:18;24.17;;;13.40;;
76107;SDS011;64834;52.516;10.528;2023-02-17T02:37:54;21.13;;;12.90;;
76107;SDS011;64834;52.516;10.528;2023-02-17T02:40:26;23.95;;;13.75;;
76107;SDS011;64834;52.516;10.528;2023-02-17T02:42:55;19.42;;;11.57;;
76107;SDS011;64834;52.516;10.528;2023-02-17T02:45:21;22.67;;;13.52;;
76107;SDS011;64834;52.516;10.528;2023-02-17T02:47:53;17.75;;;11.50;;
76107;SDS011;64834;52.516;10.528;2023-02-17T02:50:43;19.95;;;12.23;;
76107;SDS011;64834;52.516;10.528;2023-02-17T02:53:37;20.35;;;12.45;;
76107;SDS011;64834;52.516;10.528;2023-02-17T02:56:20;22.13;;;13.52;;
76107;SDS011;64834;52.516;10.528;2023-02-17T02:59:17;20.58;;;12.52;;
76107;SDS011;64834;52.516;10.528;2023-02-17T03:02:04;23.15;;;13.40;;
76107;SDS011;64834;52.516;10.528;2023-02-17T03:07:30;25.38;;;14.38;;
76107;SDS011;64834;52.516;10.528;2023-02-17T03:10:02;22.60;;;13.88;;
76107;SDS011;64834;52.516;10.528;2023-02-17T03:12:28;20.55;;;12.57;;
76107;SDS011;64834;52.516;10.528;2023-02-17T03:14:55;21.45;;;12.93;;
76107;SDS011;64834;52.516;10.528;2023-02-17T03:17:25;24.58;;;13.85;;
76107;SDS011;64834;52.516;10.528;2023-02-17T03:19:54;23.50;;;13.85;;
76107;SDS011;64834;52.516;10.528;2023-02-17T03:22:21;23.95;;;13.68;;
76107;SDS011;64834;52.516;10.528;2023-02-17T03:24:48;22.45;;;14.25;;
76107;SDS011;64834;52.516;10.528;2023-02-17T03:27:13;24.92;;;14.25;;
76107;SDS011;64834;52.516;10.528;2023-02-17T03:29:39;22.00;;;12.95;;
76107;SDS011;64834;52.516;10.528;2023-02-17T03:32:04;21.77;;;13.02;;
76107;SDS011;64834;52.516;10.528;2023-02-17T03:34:30;25.33;;;15.40;;
76107;SDS011;64834;52.516;10.528;2023-02-17T03:36:55;22.67;;;13.38;;
76107;SDS011;64834;52.516;10.528;2023-02-17T03:39:20;22.90;;;13.10;;
76107;SDS011;64834;52.516;10.528;2023-02-17T03:41:46;23.85;;;14.52;;
76107;SDS011;64834;52.516;10.528;2023-02-17T03:44:14;25.10;;;14.57;;
76107;SDS011;64834;52.516;10.528;2023-02-17T03:46:39;21.75;;;12.85;;
76107;SDS011;64834;52.516;10.528;2023-02-17T03:49:05;26.35;;;14.02;;
76107;SDS011;64834;52.516;10.528;2023-02-17T03:51:31;25.42;;;14.48;;
76107;SDS011;64834;52.516;10.528;2023-02-17T03:53:56;26.10;;;13.98;;
76107;SDS011;64834;52.516;10.528;2023-02-17T03:56:21;25.08;;;15.07;;
76107;SDS011;64834;52.516;10.528;2023-02-17T03:58:47;22.58;;;14.00;;
76107;SDS011;64834;52.516;10.528;2023-02-17T04:01:12;21.80;;;13.30;;
76107;SDS011;64834;52.516;10.528;2023-02-17T04:03:38;22.50;;;13.98;;
76107;SDS011;64834;52.516;10.528;2023-02-17T04:06:05;22.75;;;13.65;;
76107;SDS011;64834;52.516;10.528;2023-02-17T04:08:30;23.73;;;13.63;;
76107;SDS011;64834;52.516;10.528;2023-02-17T04:10:57;22.95;;;13.13;;
76107;SDS011;64834;52.516;10.528;2023-02-17T04:13:24;21.00;;;12.77;;
76107;SDS011;64834;52.516;10.528;2023-02-17T04:15:50;22.38;;;13.00;;
76107;SDS011;64834;52.516;10.528;2023-02-17T04:18:16;21.88;;;13.25;;
76107;SDS011;64834;52.516;10.528;2023-02-17T04:20:42;22.45;;;13.23;;
76107;SDS011;64834;52.516;10.528;2023-02-17T04:23:08;21.40;;;11.73;;
76107;SDS011;64834;52.516;10.528;2023-02-17T04:25:34;20.30;;;12.15;;
76107;SDS011;64834;52.516;10.528;2023-02-17T04:28:00;18.77;;;10.68;;
76107;SDS011;64834;52.516;10.528;2023-02-17T04:30:26;22.00;;;12.95;;
76107;SDS011;64834;52.516;10.528;2023-02-17T04:32:51;18.10;;;10.25;;
76107;SDS011;64834;52.516;10.528;2023-02-17T04:35:16;21.08;;;12.90;;
76107;SDS011;64834;52.516;10.528;2023-02-17T04:37:42;18.45;;;11.25;;
76107;SDS011;64834;52.516;10.528;2023-02-17T04:40:07;20.38;;;11.95;;
76107;SDS011;64834;52.516;10.528;2023-02-17T04:42:34;21.75;;;12.90;;
76107;SDS011;64834;52.516;10.528;2023-02-17T04:45:00;21.48;;;12.88;;
76107;SDS011;64834;52.516;10.528;2023-02-17T04:47:25;19.60;;;12.50;;
76107;SDS011;64834;52.516;10.528;2023-02-17T04:49:51;22.70;;;12.70;;
76107;SDS011;64834;52.516;10.528;2023-02-17T04:52:16;21.30;;;12.13;;
76107;SDS011;64834;52.516;10.528;2023-02-17T04:54:41;19.90;;;12.35;;
76107;SDS011;64834;52.516;10.528;2023-02-17T04:57:07;20.40;;;11.45;;
76107;SDS011;64834;52.516;10.528;2023-02-17T04:59:32;20.73;;;11.60;;
76107;SDS011;64834;52.516;10.528;2023-02-17T05:01:57;21.20;;;13.10;;
76107;SDS011;64834;52.516;10.528;2023-02-17T05:04:23;19.60;;;12.15;;
76107;SDS011;64834;52.516;10.528;2023-02-17T05:06:48;19.58;;;11.70;;
76107;SDS011;64834;52.516;10.528;2023-02-17T05:09:13;18.70;;;11.65;;
76107;SDS011;64834;52.516;10.528;2023-02-17T05:11:38;17.98;;;11.73;;
76107;SDS011;64834;52.516;10.528;2023-02-17T05:14:04;16.60;;;10.52;;
76107;SDS011;64834;52.516;10.528;2023-02-17T05:16:29;19.30;;;11.30;;
76107;SDS011;64834;52.516;10.528;2023-02-17T05:18:55;18.75;;;10.10;;
76107;SDS011;64834;52.516;10.528;2023-02-17T05:21:20;17.58;;;10.77;;
76107;SDS011;64834;52.516;10.528;2023-02-17T05:23:46;15.98;;;9.88;;
76107;SDS011;64834;52.516;10.528;2023-02-17T05:26:11;18.90;;;11.13;;
76107;SDS011;64834;52.516;10.528;2023-02-17T05:28:36;18.48;;;11.00;;
76107;SDS011;64834;52.516;10.528;2023-02-17T05:31:02;18.42;;;10.70;;
76107;SDS011;64834;52.516;10.528;2023-02-17T05:33:28;17.10;;;11.43;;
76107;SDS011;64834;52.516;10.528;2023-02-17T05:35:54;17.45;;;10.80;;
76107;SDS011;64834;52.516;10.528;2023-02-17T05:38:19;18.02;;;10.38;;
76107;SDS011;64834;52.516;10.528;2023-02-17T05:40:45;16.92;;;9.70;;
76107;SDS011;64834;52.516;10.528;2023-02-17T05:43:10;17.88;;;10.68;;
76107;SDS011;64834;52.516;10.528;2023-02-17T05:45:36;18.30;;;11.40;;
76107;SDS011;64834;52.516;10.528;2023-02-17T05:48:01;18.60;;;11.00;;
76107;SDS011;64834;52.516;10.528;2023-02-17T05:50:26;18.20;;;9.02;;
76107;SDS011;64834;52.516;10.528;2023-02-17T05:52:52;18.23;;;10.57;;
76107;SDS011;64834;52.516;10.528;2023-02-17T05:55:17;17.02;;;10.77;;
76107;SDS011;64834;52.516;10.528;2023-02-17T05:57:42;20.00;;;11.48;;
76107;SDS011;64834;52.516;10.528;2023-02-17T06:00:08;19.33;;;11.48;;
76107;SDS011;64834;52.516;10.528;2023-02-17T06:02:34;17.92;;;10.32;;
76107;SDS011;64834;52.516;10.528;2023-02-17T06:04:59;19.15;;;10.25;;
76107;SDS011;64834;52.516;10.528;2023-02-17T06:07:24;16.80;;;10.75;;
76107;SDS011;64834;52.516;10.528;2023-02-17T06:09:50;16.40;;;10.25;;
76107;SDS011;64834;52.516;10.528;2023-02-17T06:12:15;20.23;;;11.20;;
76107;SDS011;64834;52.516;10.528;2023-02-17T06:14:40;18.20;;;10.48;;
76107;SDS011;64834;52.516;10.528;2023-02-17T06:17:06;19.38;;;11.35;;
76107;SDS011;64834;52.516;10.528;2023-02-17T06:19:31;17.23;;;10.63;;
76107;SDS011;64834;52.516;10.528;2023-02-17T06:21:56;16.65;;;9.15;;
76107;SDS011;64834;52.516;10.528;2023-02-17T06:24:22;16.35;;;9.38;;
76107;SDS011;64834;52.516;10.528;2023-02-17T06:26:48;15.38;;;8.43;;
76107;SDS011;64834;52.516;10.528;2023-02-17T06:29:13;17.67;;;10.20;;
76107;SDS011;64834;52.516;10.528;2023-02-17T06:31:39;17.98;;;10.25;;
76107;SDS011;64834;52.516;10.528;2023-02-17T06:34:04;16.50;;;10.15;;
76107;SDS011;64834;52.516;10.528;2023-02-17T06:36:30;15.45;;;9.52;;
76107;SDS011;64834;52.516;10.528;2023-02-17T06:38:56;15.18;;;8.95;;
76107;SDS011;64834;52.516;10.528;2023-02-17T06:41:21;15.13;;;9.50;;
76107;SDS011;64834;52.516;10.528;2023-02-17T06:43:46;15.45;;;9.00;;
76107;SDS011;64834;52.516;10.528;2023-02-17T06:46:11;16.38;;;9.20;;
76107;SDS011;64834;52.516;10.528;2023-02-17T06:48:37;17.38;;;9.98;;
76107;SDS011;64834;52.516;10.528;2023-02-17T06:51:02;15.88;;;8.98;;
76107;SDS011;64834;52.516;10.528;2023-02-17T06:53:28;16.67;;;9.25;;
76107;SDS011;64834;52.516;10.528;2023-02-17T06:55:53;15.95;;;9.52;;
76107;SDS011;64834;52.516;10.528;2023-02-17T06:58:18;16.02;;;9.57;;
76107;SDS011;64834;52.516;10.528;2023-02-17T07:00:44;15.48;;;9.57;;
76107;SDS011;64834;52.516;10.528;2023-02-17T07:03:09;15.70;;;9.77;;
76107;SDS011;64834;52.516;10.528;2023-02-17T07:05:35;16.65;;;9.27;;
76107;SDS011;64834;52.516;10.528;2023-02-17T07:08:01;17.30;;;10.27;;
76107;SDS011;64834;52.516;10.528;2023-02-17T07:10:27;17.00;;;10.07;;
76107;SDS011;64834;52.516;10.528;2023-02-17T07:12:53;16.00;;;10.20;;
76107;SDS011;64834;52.516;10.528;2023-02-17T07:15:18;19.13;;;10.20;;
76107;SDS011;64834;52.516;10.528;2023-02-17T07:17:43;16.85;;;9.93;;
76107;SDS011;64834;52.516;10.528;2023-02-17T07:20:09;17.25;;;10.38;;
76107;SDS011;64834;52.516;10.528;2023-02-17T07:22:34;16.27;;;9.40;;
76107;SDS011;64834;52.516;10.528;2023-02-17T07:25:00;18.02;;;10.70;;
76107;SDS011;64834;52.516;10.528;2023-02-17T07:27:25;14.35;;;8.68;;
76107;SDS011;64834;52.516;10.528;2023-02-17T07:29:50;16.02;;;9.55;;
76107;SDS011;64834;52.516;10.528;2023-02-17T07:32:16;15.82;;;10.30;;
76107;SDS011;64834;52.516;10.528;2023-02-17T07:34:41;18.13;;;9.93;;
76107;SDS011;64834;52.516;10.528;2023-02-17T07:37:07;18.15;;;10.82;;
76107;SDS011;64834;52.516;10.528;2023-02-17T07:39:32;20.58;;;10.63;;
76107;SDS011;64834;52.516;10.528;2023-02-17T07:41:58;20.75;;;11.10;;
76107;SDS011;64834;52.516;10.528;2023-02-17T07:44:25;19.88;;;11.00;;
76107;SDS011;64834;52.516;10.528;2023-02-17T07:46:51;18.42;;;10.18;;
76107;SDS011;64834;52.516;10.528;2023-02-17T07:49:17;21.23;;;11.90;;
76107;SDS011;64834;52.516;10.528;2023-02-17T07:51:42;20.45;;;12.13;;
76107;SDS011;64834;52.516;10.528;2023-02-17T07:54:07;16.77;;;10.13;;
76107;SDS011;64834;52.516;10.528;2023-02-17T07:56:32;19.38;;;11.18;;
76107;SDS011;64834;52.516;10.528;2023-02-17T07:58:58;19.42;;;11.07;;
76107;SDS011;64834;52.516;10.528;2023-02-17T08:01:24;21.35;;;11.07;;
76107;SDS011;64834;52.516;10.528;2023-02-17T08:03:50;21.58;;;12.82;;
76107;SDS011;64834;52.516;10.528;2023-02-17T08:06:17;22.05;;;11.68;;
76107;SDS011;64834;52.516;10.528;2023-02-17T08:08:44;18.80;;;11.18;;
76107;SDS011;64834;52.516;10.528;2023-02-17T08:11:28;20.83;;;11.10;;
76107;SDS011;64834;52.516;10.528;2023-02-17T08:14:12;17.98;;;9.82;;
76107;SDS011;64834;52.516;10.528;2023-02-17T08:16:38;22.40;;;12.50;;
76107;SDS011;64834;52.516;10.528;2023-02-17T08:19:03;17.85;;;11.15;;
76107;SDS011;64834;52.516;10.528;2023-02-17T08:21:28;21.67;;;12.52;;
76107;SDS011;64834;52.516;10.528;2023-02-17T08:23:54;22.40;;;12.18;;
76107;SDS011;64834;52.516;10.528;2023-02-17T08:26:19;20.20;;;12.32;;
76107;SDS011;64834;52.516;10.528;2023-02-17T08:28:46;23.55;;;12.68;;
76107;SDS011;64834;52.516;10.528;2023-02-17T08:31:21;22.05;;;12.40;;
76107;SDS011;64834;52.516;10.528;2023-02-17T08:33:49;17.45;;;10.70;;
76107;SDS011;64834;52.516;10.528;2023-02-17T08:36:14;20.00;;;11.23;;
76107;SDS011;64834;52.516;10.528;2023-02-17T08:38:40;20.35;;;11.18;;
76107;SDS011;64834;52.516;10.528;2023-02-17T08:41:13;23.90;;;13.30;;
76107;SDS011;64834;52.516;10.528;2023-02-17T08:43:46;17.55;;;10.88;;
76107;SDS011;64834;52.516;10.528;2023-02-17T08:46:12;21.88;;;12.15;;
76107;SDS011;64834;52.516;10.528;2023-02-17T08:48:38;18.20;;;11.30;;
76107;SDS011;64834;52.516;10.528;2023-02-17T08:51:03;18.73;;;11.05;;
76107;SDS011;64834;52.516;10.528;2023-02-17T08:53:29;17.25;;;10.75;;
76107;SDS011;64834;52.516;10.528;2023-02-17T08:55:55;18.23;;;11.30;;
76107;SDS011;64834;52.516;10.528;2023-02-17T08:58:21;18.67;;;10.32;;
76107;SDS011;64834;52.516;10.528;2023-02-17T09:00:46;14.70;;;9.77;;
76107;SDS011;64834;52.516;10.528;2023-02-17T09:03:12;18.10;;;10.95;;
76107;SDS011;64834;52.516;10.528;2023-02-17T09:05:37;15.55;;;9.57;;
76107;SDS011;64834;52.516;10.528;2023-02-17T09:08:03;16.70;;;10.05;;
76107;SDS011;64834;52.516;10.528;2023-02-17T09:10:28;14.10;;;8.45;;
76107;SDS011;64834;52.516;10.528;2023-02-17T09:12:54;13.85;;;9.02;;
76107;SDS011;64834;52.516;10.528;2023-02-17T09:15:20;15.60;;;9.75;;
76107;SDS011;64834;52.516;10.528;2023-02-17T09:17:45;14.73;;;9.20;;
76107;SDS011;64834;52.516;10.528;2023-02-17T09:20:10;13.98;;;9.07;;
76107;SDS011;64834;52.516;10.528;2023-02-17T09:22:36;11.63;;;7.70;;
76107;SDS011;64834;52.516;10.528;2023-02-17T09:25:02;15.88;;;8.82;;
76107;SDS011;64834;52.516;10.528;2023-02-17T09:27:28;16.20;;;9.45;;
76107;SDS011;64834;52.516;10.528;2023-02-17T09:29:53;13.73;;;8.52;;
76107;SDS011;64834;52.516;10.528;2023-02-17T09:32:19;13.05;;;7.60;;
76107;SDS011;64834;52.516;10.528;2023-02-17T09:34:44;16.90;;;8.57;;
76107;SDS011;64834;52.516;10.528;2023-02-17T09:37:13;13.07;;;8.00;;
76107;SDS011;64834;52.516;10.528;2023-02-17T09:39:39;10.75;;;6.43;;
76107;SDS011;64834;52.516;10.528;2023-02-17T09:42:04;12.23;;;7.43;;
76107;SDS011;64834;52.516;10.528;2023-02-17T09:44:39;12.13;;;7.78;;
76107;SDS011;64834;52.516;10.528;2023-02-17T09:47:12;11.98;;;7.25;;
76107;SDS011;64834;52.516;10.528;2023-02-17T09:49:43;13.40;;;8.45;;
76107;SDS011;64834;52.516;10.528;2023-02-17T09:52:17;14.32;;;7.30;;
76107;SDS011;64834;52.516;10.528;2023-02-17T09:55:13;14.50;;;8.35;;
76107;SDS011;64834;52.516;10.528;2023-02-17T09:57:48;11.20;;;6.75;;
76107;SDS011;64834;52.516;10.528;2023-02-17T10:00:15;12.23;;;7.80;;
76107;SDS011;64834;52.516;10.528;2023-02-17T10:02:47;12.55;;;8.20;;
76107;SDS011;64834;52.516;10.528;2023-02-17T10:05:21;9.07;;;7.15;;
76107;SDS011;64834;52.516;10.528;2023-02-17T10:08:05;14.90;;;7.10;;
76107;SDS011;64834;52.516;10.528;2023-02-17T10:10:57;11.15;;;7.25;;
76107;SDS011;64834;52.516;10.528;2023-02-17T10:13:28;10.85;;;6.38;;
76107;SDS011;64834;52.516;10.528;2023-02-17T10:15:58;11.02;;;6.78;;
76107;SDS011;64834;52.516;10.528;2023-02-17T10:18:36;10.38;;;6.97;;
76107;SDS011;64834;52.516;10.528;2023-02-17T10:21:18;10.63;;;6.38;;
76107;SDS011;64834;52.516;10.528;2023-02-17T10:23:49;7.72;;;5.22;;
76107;SDS011;64834;52.516;10.528;2023-02-17T10:29:26;11.35;;;6.05;;
76107;SDS011;64834;52.516;10.528;2023-02-17T10:32:09;12.48;;;6.65;;
76107;SDS011;64834;52.516;10.528;2023-02-17T10:37:29;10.85;;;6.50;;
76107;SDS011;64834;52.516;10.528;2023-02-17T10:39:56;10.45;;;6.50;;
76107;SDS011;64834;52.516;10.528;2023-02-17T10:42:29;9.93;;;6.00;;
76107;SDS011;64834;52.516;10.528;2023-02-17T10:45:01;7.75;;;4.88;;
76107;SDS011;64834;52.516;10.528;2023-02-17T10:47:39;8.82;;;5.88;;
76107;SDS011;64834;52.516;10.528;2023-02-17T10:50:05;9.65;;;6.05;;
76107;SDS011;64834;52.516;10.528;2023-02-17T10:52:38;8.23;;;5.38;;
76107;SDS011;64834;52.516;10.528;2023-02-17T10:55:16;9.85;;;6.65;;
76107;SDS011;64834;52.516;10.528;2023-02-17T10:57:43;9.35;;;6.07;;
76107;SDS011;64834;52.516;10.528;2023-02-17T11:00:16;10.48;;;6.43;;
76107;SDS011;64834;52.516;10.528;2023-02-17T11:02:43;9.45;;;6.43;;
76107;SDS011;64834;52.516;10.528;2023-02-17T11:05:29;10.63;;;7.10;;
76107;SDS011;64834;52.516;10.528;2023-02-17T11:08:07;9.45;;;5.63;;
76107;SDS011;64834;52.516;10.528;2023-02-17T11:13:39;10.57;;;6.43;;
76107;SDS011;64834;52.516;10.528;2023-02-17T11:16:20;12.60;;;7.60;;
76107;SDS011;64834;52.516;10.528;2023-02-17T11:18:52;14.00;;;7.63;;
76107;SDS011;64834;52.516;10.528;2023-02-17T11:21:19;14.32;;;8.60;;
76107;SDS011;64834;52.516;10.528;2023-02-17T11:23:48;13.82;;;8.45;;
76107;SDS011;64834;52.516;10.528;2023-02-17T11:26:22;12.50;;;7.25;;
76107;SDS011;64834;52.516;10.528;2023-02-17T11:28:50;14.32;;;9.02;;
76107;SDS011;64834;52.516;10.528;2023-02-17T11:31:33;16.15;;;8.77;;
76107;SDS011;64834;52.516;10.528;2023-02-17T11:34:09;12.43;;;8.30;;
76107;SDS011;64834;52.516;10.528;2023-02-17T11:36:39;15.15;;;9.07;;
76107;SDS011;64834;52.516;10.528;2023-02-17T11:39:20;14.65;;;8.90;;
76107;SDS011;64834;52.516;10.528;2023-02-17T11:41:46;16.20;;;9.80;;
76107;SDS011;64834;52.516;10.528;2023-02-17T11:44:20;12.20;;;8.57;;
76107;SDS011;64834;52.516;10.528;2023-02-17T11:46:51;16.52;;;10.20;;
76107;SDS011;64834;52.516;10.528;2023-02-17T11:57:52;13.00;;;8.48;;
76107;SDS011;64834;52.516;10.528;2023-02-17T12:03:41;14.40;;;8.25;;
76107;SDS011;64834;52.516;10.528;2023-02-17T12:12:35;14.48;;;8.93;;
76107;SDS011;64834;52.516;10.528;2023-02-17T12:15:48;15.57;;;8.80;;
76107;SDS011;64834;52.516;10.528;2023-02-17T12:21:46;15.75;;;9.25;;
76107;SDS011;64834;52.516;10.528;2023-02-17T12:24:17;11.52;;;6.05;;
76107;SDS011;64834;52.516;10.528;2023-02-17T12:27:06;16.40;;;9.68;;
76107;SDS011;64834;52.516;10.528;2023-02-17T12:32:33;14.02;;;9.43;;
76107;SDS011;64834;52.516;10.528;2023-02-17T12:35:25;13.90;;;8.60;;
76107;SDS011;64834;52.516;10.528;2023-02-17T12:38:09;16.27;;;10.43;;
76107;SDS011;64834;52.516;10.528;2023-02-17T12:40:42;17.65;;;9.95;;
76107;SDS011;64834;52.516;10.528;2023-02-17T12:43:29;12.60;;;8.52;;
76107;SDS011;64834;52.516;10.528;2023-02-17T12:46:03;13.20;;;8.02;;
76107;SDS011;64834;52.516;10.528;2023-02-17T12:48:39;13.80;;;7.60;;
76107;SDS011;64834;52.516;10.528;2023-02-17T12:51:12;10.43;;;6.40;;
76107;SDS011;64834;52.516;10.528;2023-02-17T12:53:45;12.52;;;6.97;;
76107;SDS011;64834;52.516;10.528;2023-02-17T12:58:50;12.48;;;8.38;;
76107;SDS011;64834;52.516;10.528;2023-02-17T13:01:18;13.02;;;7.22;;
76107;SDS011;64834;52.516;10.528;2023-02-17T13:03:48;14.80;;;9.52;;
76107;SDS011;64834;52.516;10.528;2023-02-17T13:06:18;11.00;;;6.88;;
76107;SDS011;64834;52.516;10.528;2023-02-17T13:08:55;11.82;;;7.45;;
76107;SDS011;64834;52.516;10.528;2023-02-17T13:11:27;14.57;;;8.57;;
76107;SDS011;64834;52.516;10.528;2023-02-17T13:14:08;13.10;;;7.70;;
76107;SDS011;64834;52.516;10.528;2023-02-17T13:16:53;11.80;;;7.50;;
76107;SDS011;64834;52.516;10.528;2023-02-17T13:19:29;11.48;;;8.73;;
76107;SDS011;64834;52.516;10.528;2023-02-17T13:21:57;11.32;;;7.40;;
76107;SDS011;64834;52.516;10.528;2023-02-17T13:24:34;10.05;;;7.18;;
76107;SDS011;64834;52.516;10.528;2023-02-17T13:27:21;10.30;;;5.40;;
76107;SDS011;64834;52.516;10.528;2023-02-17T13:29:57;11.00;;;6.65;;
76107;SDS011;64834;52.516;10.528;2023-02-17T13:32:27;11.65;;;6.65;;
76107;SDS011;64834;52.516;10.528;2023-02-17T13:35:04;11.98;;;7.47;;
76107;SDS011;64834;52.516;10.528;2023-02-17T13:37:48;8.38;;;6.15;;
76107;SDS011;64834;52.516;10.528;2023-02-17T13:42:43;7.97;;;4.97;;
76107;SDS011;64834;52.516;10.528;2023-02-17T13:47:58;11.10;;;6.93;;
76107;SDS011;64834;52.516;10.528;2023-02-17T13:50:36;11.98;;;6.50;;
76107;SDS011;64834;52.516;10.528;2023-02-17T13:56:00;12.23;;;7.28;;
76107;SDS011;64834;52.516;10.528;2023-02-17T14:00:57;8.13;;;4.57;;
76107;SDS011;64834;52.516;10.528;2023-02-17T14:03:24;8.20;;;5.25;;
76107;SDS011;64834;52.516;10.528;2023-02-17T14:05:51;8.32;;;5.30;;
76107;SDS011;64834;52.516;10.528;2023-02-17T14:10:56;9.38;;;5.97;;
76107;SDS011;64834;52.516;10.528;2023-02-17T14:13:22;10.98;;;5.43;;
76107;SDS011;64834;52.516;10.528;2023-02-17T14:15:55;10.00;;;5.10;;
76107;SDS011;64834;52.516;10.528;2023-02-17T14:18:38;9.07;;;5.13;;
76107;SDS011;64834;52.516;10.528;2023-02-17T14:21:10;10.45;;;5.32;;
76107;SDS011;64834;52.516;10.528;2023-02-17T14:23:49;11.93;;;5.53;;
76107;SDS011;64834;52.516;10.528;2023-02-17T14:29:08;11.48;;;5.35;;
76107;SDS011;64834;52.516;10.528;2023-02-17T14:34:06;10.93;;;5.47;;
76107;SDS011;64834;52.516;10.528;2023-02-17T14:36:39;11.65;;;6.88;;
76107;SDS011;64834;52.516;10.528;2023-02-17T14:39:06;7.85;;;4.40;;
76107;SDS011;64834;52.516;10.528;2023-02-17T14:41:33;10.75;;;6.50;;
76107;SDS011;64834;52.516;10.528;2023-02-17T14:43:58;9.85;;;4.85;;
76107;SDS011;64834;52.516;10.528;2023-02-17T14:46:25;10.82;;;6.32;;
76107;SDS011;64834;52.516;10.528;2023-02-17T14:48:51;8.10;;;4.85;;
76107;SDS011;64834;52.516;10.528;2023-02-17T14:51:18;7.25;;;4.10;;
76107;SDS011;64834;52.516;10.528;2023-02-17T14:53:45;12.77;;;6.57;;
76107;SDS011;64834;52.516;10.528;2023-02-17T14:56:14;8.60;;;5.10;;
76107;SDS011;64834;52.516;10.528;2023-02-17T14:58:49;11.07;;;6.13;;
76107;SDS011;64834;52.516;10.528;2023-02-17T15:01:17;11.73;;;6.80;;
76107;SDS011;64834;52.516;10.528;2023-02-17T15:03:44;12.25;;;5.93;;
76107;SDS011;64834;52.516;10.528;2023-02-17T15:06:54;10.27;;;5.88;;
76107;SDS011;64834;52.516;10.528;2023-02-17T15:09:07;13.70;;;6.72;;
76107;SDS011;64834;52.516;10.528;2023-02-17T15:11:34;11.90;;;6.30;;
76107;SDS011;64834;52.516;10.528;2023-02-17T15:14:01;9.90;;;6.43;;
76107;SDS011;64834;52.516;10.528;2023-02-17T15:16:28;8.15;;;5.35;;
76107;SDS011;64834;52.516;10.528;2023-02-17T15:18:53;9.82;;;5.53;;
76107;SDS011;64834;52.516;10.528;2023-02-17T15:21:28;10.93;;;5.63;;
76107;SDS011;64834;52.516;10.528;2023-02-17T15:23:56;8.43;;;5.15;;
76107;SDS011;64834;52.516;10.528;2023-02-17T15:26:22;8.85;;;5.10;;
76107;SDS011;64834;52.516;10.528;2023-02-17T15:28:48;9.35;;;6.20;;
76107;SDS011;64834;52.516;10.528;2023-02-17T15:31:14;8.63;;;5.13;;
76107;SDS011;64834;52.516;10.528;2023-02-17T15:33:41;10.07;;;5.43;;